sensor_id;sensor_type;location;lat;lon;timestamp;P1;durP1;ratioP1;P2;durP2;ratioP2
75922;SDS011;64602;47.542;19.090;2023-03-01T07:03:15;13.02;;;7.93;;
75922;SDS011;64602;47.542;19.090;2023-03-01T07:08:17;16.67;;;7.80;;
75922;SDS011;64602;47.542;19.090;2023-03-01T07:13:20;13.38;;;7.82;;
75922;SDS011;64602;47.542;19.090;2023-03-01T07:18:22;15.93;;;7.95;;
75922;SDS011;64602;47.542;19.090;2023-03-01T07:23:24;16.23;;;8.90;;
75922;SDS011;64602;47.542;19.090;2023-03-01T07:28:26;19.95;;;8.25;;
75922;SDS011;64602;47.542;19.090;2023-03-01T07:33:29;15.25;;;8.48;;
75922;SDS011;64602;47.542;19.090;2023-03-01T07:38:31;14.70;;;8.40;;
75922;SDS011;64602;47.542;19.090;2023-03-01T07:43:34;15.73;;;8.00;;
75922;SDS011;64602;47.542;19.090;2023-03-01T07:48:36;16.12;;;8.70;;
75922;SDS011;64602;47.542;19.090;2023-03-01T07:53:38;17.77;;;8.63;;
75922;SDS011;64602;47.542;19.090;2023-03-01T07:58:41;17.40;;;8.67;;
75922;SDS011;64602;47.542;19.090;2023-03-01T08:03:44;18.12;;;9.85;;
75922;SDS011;64602;47.542;19.090;2023-03-01T08:08:46;16.33;;;8.98;;
75922;SDS011;64602;47.542;19.090;2023-03-01T08:13:49;15.37;;;8.40;;
75922;SDS011;64602;47.542;19.090;2023-03-01T08:18:54;17.58;;;8.55;;
75922;SDS011;64602;47.542;19.090;2023-03-01T08:23:58;19.40;;;8.40;;
75922;SDS011;64602;47.542;19.090;2023-03-01T08:29:00;14.27;;;8.00;;
75922;SDS011;64602;47.542;19.090;2023-03-01T08:34:10;16.17;;;8.50;;
75922;SDS011;64602;47.542;19.090;2023-03-01T08:39:15;15.88;;;7.30;;
75922;SDS011;64602;47.542;19.090;2023-03-01T08:44:19;15.18;;;7.50;;
75922;SDS011;64602;47.542;19.090;2023-03-01T08:49:23;14.27;;;7.47;;
75922;SDS011;64602;47.542;19.090;2023-03-01T08:54:25;16.50;;;7.72;;
75922;SDS011;64602;47.542;19.090;2023-03-01T08:59:27;15.13;;;7.62;;
75922;SDS011;64602;47.542;19.090;2023-03-01T09:04:31;13.10;;;7.40;;
75922;SDS011;64602;47.542;19.090;2023-03-01T09:09:35;12.73;;;7.20;;
75922;SDS011;64602;47.542;19.090;2023-03-01T09:14:37;16.75;;;8.80;;
75922;SDS011;64602;47.542;19.090;2023-03-01T09:19:40;12.07;;;7.07;;
75922;SDS011;64602;47.542;19.090;2023-03-01T09:24:44;13.53;;;8.30;;
75922;SDS011;64602;47.542;19.090;2023-03-01T09:29:46;13.82;;;8.13;;
75922;SDS011;64602;47.542;19.090;2023-03-01T09:34:48;13.68;;;7.53;;
75922;SDS011;64602;47.542;19.090;2023-03-01T09:40:05;12.53;;;7.20;;
75922;SDS011;64602;47.542;19.090;2023-03-01T09:45:15;13.77;;;7.32;;
75922;SDS011;64602;47.542;19.090;2023-03-01T09:50:26;20.90;;;8.70;;
75922;SDS011;64602;47.542;19.090;2023-03-01T09:55:38;14.80;;;7.73;;
75922;SDS011;64602;47.542;19.090;2023-03-01T10:00:44;13.13;;;8.40;;
75922;SDS011;64602;47.542;19.090;2023-03-01T10:11:35;13.30;;;7.80;;
75922;SDS011;64602;47.542;19.090;2023-03-01T10:16:43;15.37;;;8.60;;
75922;SDS011;64602;47.542;19.090;2023-03-01T10:21:51;13.98;;;8.40;;
75922;SDS011;64602;47.542;19.090;2023-03-01T10:26:58;14.87;;;8.63;;
75922;SDS011;64602;47.542;19.090;2023-03-01T10:32:06;11.63;;;7.30;;
75922;SDS011;64602;47.542;19.090;2023-03-01T10:42:19;15.15;;;9.60;;
75922;SDS011;64602;47.542;19.090;2023-03-01T10:47:28;16.00;;;8.80;;
75922;SDS011;64602;47.542;19.090;2023-03-01T10:52:35;15.00;;;7.93;;
75922;SDS011;64602;47.542;19.090;2023-03-01T10:57:39;13.90;;;8.57;;
75922;SDS011;64602;47.542;19.090;2023-03-01T11:02:51;14.77;;;8.83;;
75922;SDS011;64602;47.542;19.090;2023-03-01T11:08:05;15.37;;;7.93;;
75922;SDS011;64602;47.542;19.090;2023-03-01T11:13:09;16.55;;;8.88;;
75922;SDS011;64602;47.542;19.090;2023-03-01T11:18:21;13.18;;;7.97;;
75922;SDS011;64602;47.542;19.090;2023-03-01T11:23:34;15.27;;;8.17;;
75922;SDS011;64602;47.542;19.090;2023-03-01T11:28:51;12.10;;;7.65;;
75922;SDS011;64602;47.542;19.090;2023-03-01T11:34:10;12.43;;;7.53;;
75922;SDS011;64602;47.542;19.090;2023-03-01T11:44:42;12.57;;;8.07;;
75922;SDS011;64602;47.542;19.090;2023-03-01T12:00:40;12.37;;;7.27;;
75922;SDS011;64602;47.542;19.090;2023-03-01T12:16:28;11.90;;;7.20;;
75922;SDS011;64602;47.542;19.090;2023-03-01T12:21:46;11.90;;;7.00;;
75922;SDS011;64602;47.542;19.090;2023-03-01T13:57:48;9.77;;;3.22;;
75922;SDS011;64602;47.542;19.090;2023-03-01T14:08:19;6.07;;;3.10;;
75922;SDS011;64602;47.542;19.090;2023-03-01T14:13:37;8.88;;;2.97;;
75922;SDS011;64602;47.542;19.090;2023-03-01T14:24:34;7.07;;;3.23;;
75922;SDS011;64602;47.542;19.090;2023-03-01T14:29:41;6.07;;;3.20;;
75922;SDS011;64602;47.542;19.090;2023-03-01T14:34:44;5.40;;;3.08;;
75922;SDS011;64602;47.542;19.090;2023-03-01T14:39:49;4.30;;;2.63;;
75922;SDS011;64602;47.542;19.090;2023-03-01T14:44:52;6.90;;;2.83;;
75922;SDS011;64602;47.542;19.090;2023-03-01T14:50:01;6.50;;;2.83;;
75922;SDS011;64602;47.542;19.090;2023-03-01T14:55:05;9.35;;;3.12;;
75922;SDS011;64602;47.542;19.090;2023-03-01T15:05:22;5.07;;;3.00;;
75922;SDS011;64602;47.542;19.090;2023-03-01T15:10:36;7.90;;;2.80;;
75922;SDS011;64602;47.542;19.090;2023-03-01T15:15:38;6.63;;;2.60;;
75922;SDS011;64602;47.542;19.090;2023-03-01T15:20:46;4.68;;;2.60;;
75922;SDS011;64602;47.542;19.090;2023-03-01T15:25:50;6.55;;;2.67;;
75922;SDS011;64602;47.542;19.090;2023-03-01T15:31:02;6.13;;;2.63;;
75922;SDS011;64602;47.542;19.090;2023-03-01T15:41:47;5.87;;;2.30;;
75922;SDS011;64602;47.542;19.090;2023-03-01T15:46:50;11.23;;;2.65;;
75922;SDS011;64602;47.542;19.090;2023-03-01T15:51:53;8.03;;;2.27;;
75922;SDS011;64602;47.542;19.090;2023-03-01T15:57:01;8.20;;;2.53;;
75922;SDS011;64602;47.542;19.090;2023-03-01T16:02:08;7.28;;;2.33;;
75922;SDS011;64602;47.542;19.090;2023-03-01T16:07:14;5.60;;;2.90;;
75922;SDS011;64602;47.542;19.090;2023-03-01T16:12:16;7.95;;;3.45;;
75922;SDS011;64602;47.542;19.090;2023-03-01T16:17:18;7.60;;;3.40;;
75922;SDS011;64602;47.542;19.090;2023-03-01T16:22:20;8.00;;;3.20;;
75922;SDS011;64602;47.542;19.090;2023-03-01T16:27:26;7.17;;;2.87;;
75922;SDS011;64602;47.542;19.090;2023-03-01T16:32:29;8.75;;;3.53;;
75922;SDS011;64602;47.542;19.090;2023-03-01T16:37:32;7.87;;;3.53;;
75922;SDS011;64602;47.542;19.090;2023-03-01T16:42:35;8.93;;;3.93;;
75922;SDS011;64602;47.542;19.090;2023-03-01T16:47:37;7.05;;;3.20;;
75922;SDS011;64602;47.542;19.090;2023-03-01T16:52:39;8.93;;;4.25;;
75922;SDS011;64602;47.542;19.090;2023-03-01T16:57:41;8.70;;;4.00;;
75922;SDS011;64602;47.542;19.090;2023-03-01T17:02:44;10.60;;;4.22;;
75922;SDS011;64602;47.542;19.090;2023-03-01T17:07:46;12.50;;;4.40;;
75922;SDS011;64602;47.542;19.090;2023-03-01T17:12:48;8.93;;;4.13;;
75922;SDS011;64602;47.542;19.090;2023-03-01T17:17:51;10.43;;;4.20;;
75922;SDS011;64602;47.542;19.090;2023-03-01T17:22:53;9.00;;;4.62;;
75922;SDS011;64602;47.542;19.090;2023-03-01T17:27:55;12.43;;;5.12;;
75922;SDS011;64602;47.542;19.090;2023-03-01T17:32:58;12.83;;;4.63;;
75922;SDS011;64602;47.542;19.090;2023-03-01T17:38:00;11.45;;;5.80;;
75922;SDS011;64602;47.542;19.090;2023-03-01T17:43:03;13.43;;;6.00;;
75922;SDS011;64602;47.542;19.090;2023-03-01T17:48:05;14.37;;;6.67;;
75922;SDS011;64602;47.542;19.090;2023-03-01T17:53:10;19.10;;;9.05;;
75922;SDS011;64602;47.542;19.090;2023-03-01T17:58:13;14.98;;;7.50;;
75922;SDS011;64602;47.542;19.090;2023-03-01T18:03:16;13.80;;;6.97;;
75922;SDS011;64602;47.542;19.090;2023-03-01T18:08:18;14.80;;;7.17;;
75922;SDS011;64602;47.542;19.090;2023-03-01T18:13:20;14.63;;;7.00;;
75922;SDS011;64602;47.542;19.090;2023-03-01T18:18:22;14.05;;;7.78;;
75922;SDS011;64602;47.542;19.090;2023-03-01T18:23:24;14.93;;;7.47;;
75922;SDS011;64602;47.542;19.090;2023-03-01T18:28:27;15.38;;;7.75;;
75922;SDS011;64602;47.542;19.090;2023-03-01T18:33:31;15.88;;;7.60;;
75922;SDS011;64602;47.542;19.090;2023-03-01T18:38:33;16.47;;;8.07;;
75922;SDS011;64602;47.542;19.090;2023-03-01T18:43:35;14.50;;;8.18;;
75922;SDS011;64602;47.542;19.090;2023-03-01T18:48:37;15.55;;;8.38;;
75922;SDS011;64602;47.542;19.090;2023-03-01T18:53:40;16.43;;;9.30;;
75922;SDS011;64602;47.542;19.090;2023-03-01T18:58:43;16.70;;;9.20;;
75922;SDS011;64602;47.542;19.090;2023-03-01T19:03:45;19.20;;;9.63;;
75922;SDS011;64602;47.542;19.090;2023-03-01T19:08:48;16.17;;;9.07;;
75922;SDS011;64602;47.542;19.090;2023-03-01T19:13:50;17.43;;;9.07;;
75922;SDS011;64602;47.542;19.090;2023-03-01T19:18:55;19.85;;;9.65;;
75922;SDS011;64602;47.542;19.090;2023-03-01T19:24:00;16.23;;;9.57;;
75922;SDS011;64602;47.542;19.090;2023-03-01T19:29:03;18.13;;;9.97;;
75922;SDS011;64602;47.542;19.090;2023-03-01T19:34:06;20.15;;;10.35;;
75922;SDS011;64602;47.542;19.090;2023-03-01T19:39:12;22.55;;;12.43;;
75922;SDS011;64602;47.542;19.090;2023-03-01T19:44:15;23.03;;;11.20;;
75922;SDS011;64602;47.542;19.090;2023-03-01T19:49:17;21.43;;;10.50;;
75922;SDS011;64602;47.542;19.090;2023-03-01T19:54:19;19.27;;;10.93;;
75922;SDS011;64602;47.542;19.090;2023-03-01T19:59:22;24.70;;;12.57;;
75922;SDS011;64602;47.542;19.090;2023-03-01T20:04:29;28.30;;;12.03;;
75922;SDS011;64602;47.542;19.090;2023-03-01T20:09:31;24.55;;;12.35;;
75922;SDS011;64602;47.542;19.090;2023-03-01T20:14:33;20.25;;;11.80;;
75922;SDS011;64602;47.542;19.090;2023-03-01T20:19:35;23.73;;;13.47;;
75922;SDS011;64602;47.542;19.090;2023-03-01T20:24:37;29.55;;;14.23;;
75922;SDS011;64602;47.542;19.090;2023-03-01T20:29:39;28.35;;;15.20;;
75922;SDS011;64602;47.542;19.090;2023-03-01T20:34:41;31.37;;;15.23;;
75922;SDS011;64602;47.542;19.090;2023-03-01T20:39:44;31.20;;;15.47;;
75922;SDS011;64602;47.542;19.090;2023-03-01T20:44:46;29.92;;;15.30;;
75922;SDS011;64602;47.542;19.090;2023-03-01T20:49:51;27.55;;;15.05;;
75922;SDS011;64602;47.542;19.090;2023-03-01T20:54:53;29.53;;;15.00;;
75922;SDS011;64602;47.542;19.090;2023-03-01T20:59:56;31.35;;;15.68;;
75922;SDS011;64602;47.542;19.090;2023-03-01T21:04:58;27.25;;;15.00;;
75922;SDS011;64602;47.542;19.090;2023-03-01T21:10:00;32.73;;;15.63;;
75922;SDS011;64602;47.542;19.090;2023-03-01T21:15:02;26.85;;;15.32;;
